Time;durP1;ratioP1;P1;durP2;ratioP2;P2;SDS_P1;SDS_P2;PMS_P1;PMS_P2;Temp;Humidity;BMP_temperature;BMP_pressure;BME280_temperature;BME280_humidity;BME280_pressure;Samples;Min_cycle;Max_cycle;Signal;HPM_P1;HPM_P2
2023/03/16 00:02:02;;;;;;;;;5.25;5.25;;;;;10.72;49.52;101160.97;4998595;28;45189;-66
2023/03/16 00:04:28;;;;;;;;;4.75;4.75;;;;;10.77;49.52;101166.22;5011958;28;45491;-66
2023/03/16 00:06:53;;;;;;;;;3.50;3.50;;;;;10.76;48.83;101168.88;5016671;28;45337;-66
2023/03/16 00:09:18;;;;;;;;;4.00;4.00;;;;;10.76;49.28;101163.59;5018032;27;50721;-66
2023/03/16 00:11:44;;;;;;;;;4.75;4.75;;;;;10.75;49.20;101164.50;5018264;28;49975;-66
2023/03/16 00:14:09;;;;;;;;;5.75;4.75;;;;;10.72;49.34;101162.75;5018186;28;46477;-65
2023/03/16 00:16:34;;;;;;;;;5.50;5.50;;;;;10.72;49.41;101152.25;5018131;28;45318;-67
2023/03/16 00:19:02;;;;;;;;;9.00;6.50;;;;;10.71;49.48;101153.13;5018087;28;45234;-66
2023/03/16 00:21:29;;;;;;;;;6.75;5.50;;;;;10.69;49.12;101147.88;5018134;28;45223;-66
2023/03/16 00:23:54;;;;;;;;;5.50;4.00;;;;;10.68;49.08;101148.75;5017861;28;46376;-66
2023/03/16 00:26:21;;;;;;;;;7.00;5.75;;;;;10.67;49.33;101152.28;5018269;28;45175;-66
2023/03/16 00:28:47;;;;;;;;;7.00;7.00;;;;;10.68;49.27;101147.91;5018106;28;45169;-65
2023/03/16 00:31:13;;;;;;;;;6.00;4.25;;;;;10.67;49.35;101146.16;5033299;28;45362;-66
2023/03/16 00:33:41;;;;;;;;;8.00;7.25;;;;;10.65;49.50;101142.66;5016479;28;46976;-66
2023/03/16 00:36:10;;;;;;;;;7.25;5.50;;;;;10.63;49.36;101131.28;5017917;28;45510;-65
2023/03/16 00:38:43;;;;;;;;;6.50;5.25;;;;;10.62;49.31;101138.28;5017956;28;45232;-66
2023/03/16 00:41:10;;;;;;;;;7.50;7.00;;;;;10.62;49.15;101140.94;5017777;28;45195;-66
2023/03/16 00:43:43;;;;;;;;;5.50;5.50;;;;;10.60;49.48;101132.16;5017750;28;46297;-66
2023/03/16 00:46:14;;;;;;;;;7.25;7.25;;;;;10.59;49.41;101133.06;5017823;28;45251;-65
2023/03/16 00:48:41;;;;;;;;;7.00;7.00;;;;;10.59;49.31;101133.06;5017323;28;45385;-66
2023/03/16 00:51:15;;;;;;;;;6.25;4.50;;;;;10.58;49.38;101128.69;4997985;28;45583;-66
2023/03/16 00:53:42;;;;;;;;;6.75;6.00;;;;;10.56;49.27;101127.81;5016207;28;47258;-66
2023/03/16 00:56:09;;;;;;;;;6.00;6.00;;;;;10.55;49.30;101120.81;5016897;28;45177;-66
2023/03/16 00:58:37;;;;;;;;;6.00;6.00;;;;;10.54;49.41;101113.81;5017550;28;45181;-66
2023/03/16 01:01:04;;;;;;;;;8.00;5.75;;;;;10.53;49.70;101106.84;5004369;28;45327;-66
2023/03/16 01:03:30;;;;;;;;;7.75;6.75;;;;;10.51;49.48;101095.47;5004549;28;46412;-66
2023/03/16 01:05:58;;;;;;;;;6.00;5.50;;;;;10.49;49.31;101102.47;5017562;28;45391;-65
2023/03/16 01:08:26;;;;;;;;;6.75;6.75;;;;;10.48;49.48;101111.28;5017750;28;45176;-66
2023/03/16 01:10:53;;;;;;;;;8.00;6.00;;;;;10.47;49.34;101125.28;5016392;28;45519;-66
2023/03/16 01:13:18;;;;;;;;;8.25;7.00;;;;;10.45;49.39;101127.03;5017523;28;46853;-66
2023/03/16 01:15:44;;;;;;;;;6.50;6.25;;;;;10.44;49.50;101117.41;5017432;28;45415;-66
2023/03/16 01:18:12;;;;;;;;;8.50;6.25;;;;;10.42;49.66;101114.81;5017501;28;45250;-66
2023/03/16 01:20:37;;;;;;;;;6.25;6.25;;;;;10.42;49.32;101127.94;5017129;28;45426;-66
2023/03/16 01:23:03;;;;;;;;;7.25;6.00;;;;;10.38;49.51;101129.72;5017402;28;45173;-66
2023/03/16 01:25:28;;;;;;;;;4.00;2.75;;;;;10.38;49.34;101128.84;5017115;28;45337;-66
2023/03/16 01:27:53;;;;;;;;;7.50;5.00;;;;;10.37;49.41;101109.56;5017480;28;45314;-66
2023/03/16 01:30:19;;;;;;;;;11.25;7.25;;;;;10.37;49.34;101082.44;5016867;28;50399;-66
2023/03/16 01:32:45;;;;;;;;;5.50;5.50;;;;;10.35;49.62;101064.03;5017013;28;45368;-66
2023/03/16 01:35:10;;;;;;;;;7.75;7.25;;;;;10.35;49.56;101069.28;5017129;27;45389;-66
2023/03/16 01:37:36;;;;;;;;;7.50;7.50;;;;;10.34;49.69;101077.16;5017467;28;45385;-65
2023/03/16 01:40:05;;;;;;;;;5.50;4.00;;;;;10.34;49.54;101074.53;5017011;28;45440;-66
2023/03/16 01:42:30;;;;;;;;;10.25;6.25;;;;;10.32;49.32;101071.06;5017135;28;45416;-66
2023/03/16 01:45:04;;;;;;;;;9.50;8.00;;;;;10.32;49.43;101073.69;5016974;28;45541;-65
2023/03/16 01:47:36;;;;;;;;;8.25;7.50;;;;;10.30;49.57;101068.47;5016841;28;45345;-66
2023/03/16 01:50:03;;;;;;;;;11.25;5.50;;;;;10.30;49.63;101068.47;5005580;28;45347;-66
2023/03/16 01:52:32;;;;;;;;;7.75;7.75;;;;;10.29;49.65;101060.56;5006845;28;46172;-66
2023/03/16 01:55:07;;;;;;;;;9.50;7.50;;;;;10.28;49.70;101059.72;5016700;28;45337;-66
2023/03/16 01:57:37;;;;;;;;;6.50;6.50;;;;;10.27;49.56;101068.47;5016882;28;45231;-66
2023/03/16 02:00:20;;;;;;;;;6.75;6.50;;;;;10.25;49.62;101059.72;5011603;28;45421;-66
2023/03/16 02:02:51;;;;;;;;;7.00;7.00;;;;;10.24;49.69;101066.72;4998059;28;47012;-65
2023/03/16 02:05:35;;;;;;;;;7.50;7.50;;;;;10.23;49.63;101053.63;5016943;28;45280;-66
2023/03/16 02:08:02;;;;;;;;;7.25;7.25;;;;;10.21;49.47;101060.63;5017416;28;45313;-65
2023/03/16 02:10:28;;;;;;;;;5.00;5.00;;;;;10.18;49.50;101042.28;5019707;28;45255;-65
2023/03/16 02:12:54;;;;;;;;;7.00;7.00;;;;;10.18;49.92;101034.41;5019421;28;46145;-66
2023/03/16 02:15:20;;;;;;;;;5.00;5.00;;;;;10.18;49.43;101031.78;5019923;28;45235;-66
2023/03/16 02:17:46;;;;;;;;;6.25;5.00;;;;;10.16;49.43;101028.28;5019322;28;45211;-66
2023/03/16 02:20:30;;;;;;;;;6.25;5.00;;;;;10.15;49.68;101032.69;5019731;28;45293;-66
2023/03/16 02:22:56;;;;;;;;;4.50;4.50;;;;;10.08;49.73;101031.84;5019608;28;45261;-65
2023/03/16 02:25:42;;;;;;;;;8.25;6.75;;;;;10.09;49.73;101030.09;5019430;28;45382;-66
2023/03/16 02:28:26;;;;;;;;;5.00;4.00;;;;;10.07;49.55;101035.38;5018530;28;45407;-66
2023/03/16 02:30:52;;;;;;;;;6.00;5.75;;;;;10.07;49.71;101039.72;5019452;28;45337;-66
2023/03/16 02:33:20;;;;;;;;;3.50;3.50;;;;;10.02;49.79;101031.88;5017893;28;46954;-66
2023/03/16 02:35:45;;;;;;;;;6.25;6.25;;;;;10.02;49.73;101029.25;5019339;28;45321;-66
2023/03/16 02:38:10;;;;;;;;;7.00;7.00;;;;;10.02;49.50;101021.38;5019512;28;45716;-66
2023/03/16 02:40:37;;;;;;;;;7.25;5.00;;;;;10.02;49.71;101025.75;5019193;28;45436;-65
2023/03/16 02:43:10;;;;;;;;;6.25;5.50;;;;;9.99;49.58;101024.03;5019367;28;46179;-66
2023/03/16 02:45:45;;;;;;;;;6.75;5.00;;;;;9.98;49.80;101019.66;5019335;28;45346;-66
2023/03/16 02:48:24;;;;;;;;;6.75;5.00;;;;;9.95;49.46;101006.56;5034406;28;45326;-66
2023/03/16 02:50:52;;;;;;;;;6.50;6.50;;;;;9.93;49.71;101008.31;5001205;28;45220;-66
2023/03/16 02:53:18;;;;;;;;;4.75;3.25;;;;;9.92;49.79;101012.72;5015436;28;46209;-66
2023/03/16 02:55:45;;;;;;;;;7.75;6.00;;;;;9.91;49.66;101002.19;5018827;28;45398;-66
2023/03/16 02:58:11;;;;;;;;;6.25;5.00;;;;;9.89;49.53;100998.72;5019166;28;45318;-66
2023/03/16 03:00:37;;;;;;;;;7.00;6.00;;;;;9.89;49.96;100993.47;5009352;28;45450;-66
2023/03/16 03:03:04;;;;;;;;;7.75;7.00;;;;;9.87;49.59;100996.13;5002535;28;45372;-66
2023/03/16 03:05:30;;;;;;;;;5.75;5.75;;;;;9.83;49.69;100983.03;5019185;28;45242;-66
2023/03/16 03:07:56;;;;;;;;;8.00;5.25;;;;;9.83;49.69;100981.25;5018965;28;45290;-66
2023/03/16 03:10:21;;;;;;;;;6.00;5.75;;;;;9.81;49.59;100971.66;5019067;28;45235;-66
2023/03/16 03:12:48;;;;;;;;;5.25;3.75;;;;;9.80;49.75;100978.66;5018779;28;46294;-66
2023/03/16 03:15:15;;;;;;;;;7.75;7.00;;;;;9.78;49.75;100979.56;5018899;28;45433;-66
2023/03/16 03:17:41;;;;;;;;;8.25;6.75;;;;;9.75;49.57;100983.09;5018731;28;45304;-66
2023/03/16 03:20:15;;;;;;;;;5.25;5.00;;;;;9.74;49.47;100978.72;5019216;28;45288;-66
2023/03/16 03:22:41;;;;;;;;;6.50;4.75;;;;;9.73;49.58;100969.09;5018698;28;45491;-66
2023/03/16 03:25:07;;;;;;;;;5.50;5.50;;;;;9.70;49.61;100966.50;5018758;28;45346;-66
2023/03/16 03:27:33;;;;;;;;;6.75;5.75;;;;;9.66;49.66;100965.66;5018725;28;45406;-66
2023/03/16 03:29:58;;;;;;;;;6.50;5.00;;;;;9.66;49.85;100964.75;5018834;28;45394;-66
2023/03/16 03:32:24;;;;;;;;;5.25;4.75;;;;;9.64;49.38;100970.03;5018229;28;50689;-66
2023/03/16 03:34:49;;;;;;;;;5.00;5.00;;;;;9.63;49.86;100976.16;5018857;28;45167;-66
2023/03/16 03:37:14;;;;;;;;;6.25;6.25;;;;;9.59;49.56;100977.06;5018806;28;45275;-66
2023/03/16 03:39:40;;;;;;;;;7.50;4.25;;;;;9.57;49.53;100971.81;5018628;28;45424;-66
2023/03/16 03:42:05;;;;;;;;;5.00;4.00;;;;;9.56;49.67;100975.31;5018464;28;45282;-67
2023/03/16 03:44:33;;;;;;;;;5.25;5.25;;;;;9.51;49.64;100964.00;5018792;28;45328;-66
2023/03/16 03:46:59;;;;;;;;;6.75;6.25;;;;;9.53;49.50;100969.22;5018291;28;45439;-66
2023/03/16 03:49:24;;;;;;;;;7.50;6.25;;;;;9.51;49.70;100970.97;5012065;28;45262;-66
2023/03/16 03:51:50;;;;;;;;;7.50;6.00;;;;;9.48;49.77;100961.38;5003620;28;45336;-66
2023/03/16 03:54:15;;;;;;;;;6.25;4.00;;;;;9.46;49.59;100965.78;5018547;28;45337;-66
2023/03/16 03:56:40;;;;;;;;;4.50;4.00;;;;;9.44;49.71;100968.38;5018559;28;45746;-66
2023/03/16 03:59:06;;;;;;;;;4.00;4.00;;;;;9.44;49.80;100970.16;5018439;28;45336;-66
2023/03/16 04:01:31;;;;;;;;;4.75;4.75;;;;;9.42;49.73;100961.41;5000922;28;45333;-66
2023/03/16 04:03:56;;;;;;;;;4.50;4.50;;;;;9.41;49.78;100963.16;5009144;28;45381;-66
2023/03/16 04:06:22;;;;;;;;;6.50;4.75;;;;;9.40;49.64;100957.94;5018466;28;45314;-66
2023/03/16 04:08:48;;;;;;;;;7.25;5.25;;;;;9.39;49.57;100953.56;5017122;28;45228;-66
2023/03/16 04:11:13;;;;;;;;;4.75;4.75;;;;;9.38;49.81;100954.44;5017676;28;45296;-66
2023/03/16 04:13:38;;;;;;;;;6.00;6.00;;;;;9.37;49.85;100950.97;5018310;28;45206;-66
2023/03/16 04:16:04;;;;;;;;;5.00;3.75;;;;;9.37;49.72;100947.44;5018280;28;45528;-66
2023/03/16 04:18:37;;;;;;;;;4.00;3.00;;;;;9.35;49.67;100944.84;5018219;28;45312;-66
2023/03/16 04:21:11;;;;;;;;;5.00;5.00;;;;;9.35;49.56;100946.59;5017988;28;46241;-66
2023/03/16 04:23:36;;;;;;;;;4.00;3.00;;;;;9.34;49.70;100947.47;5018166;28;45372;-66
2023/03/16 04:26:02;;;;;;;;;2.50;2.00;;;;;9.25;49.80;100928.28;5018053;28;45336;-66
2023/03/16 04:28:28;;;;;;;;;5.00;4.50;;;;;9.30;49.78;100925.66;5018238;28;46350;-66
2023/03/16 04:30:53;;;;;;;;;4.75;4.75;;;;;9.30;49.91;100930.88;5017092;28;46050;-66
2023/03/16 04:33:20;;;;;;;;;5.75;4.00;;;;;9.31;49.61;100930.00;5017215;28;45259;-66
2023/03/16 04:35:46;;;;;;;;;6.50;5.50;;;;;9.30;49.69;100923.03;5018109;28;45228;-66
2023/03/16 04:38:11;;;;;;;;;4.25;4.00;;;;;9.30;49.79;100919.53;5017495;28;45239;-66
2023/03/16 04:40:37;;;;;;;;;7.25;6.00;;;;;9.25;49.70;100923.03;5017568;28;46100;-66
2023/03/16 04:43:02;;;;;;;;;5.00;5.00;;;;;9.27;49.59;100918.66;5017990;28;45357;-66
2023/03/16 04:45:27;;;;;;;;;6.25;4.75;;;;;9.23;49.70;100914.31;5017871;28;45368;-66
2023/03/16 04:47:53;;;;;;;;;3.00;3.00;;;;;9.25;49.66;100920.41;5017678;28;45483;-66
2023/03/16 04:50:18;;;;;;;;;5.50;4.75;;;;;9.25;49.65;100916.94;5003707;28;47466;-66
2023/03/16 04:52:43;;;;;;;;;4.25;3.00;;;;;9.23;49.78;100908.19;5009700;28;45342;-66
2023/03/16 04:55:09;;;;;;;;;7.00;5.75;;;;;9.22;49.61;100896.84;5016233;28;45832;-66
2023/03/16 04:57:34;;;;;;;;;5.00;5.00;;;;;9.23;49.61;100900.31;5018015;28;45302;-66
2023/03/16 04:59:59;;;;;;;;;4.75;4.00;;;;;9.21;49.97;100902.97;5012703;28;45306;-66
2023/03/16 05:02:25;;;;;;;;;7.00;6.00;;;;;9.20;49.67;100903.84;4996756;28;45336;-66
2023/03/16 05:04:51;;;;;;;;;3.75;3.75;;;;;9.19;49.74;100901.22;5015907;28;45275;-66
2023/03/16 05:07:16;;;;;;;;;6.25;5.00;;;;;9.18;49.81;100909.97;5017613;28;45375;-66
2023/03/16 05:09:41;;;;;;;;;6.25;3.50;;;;;9.17;49.78;100908.22;5017303;28;46126;-66
2023/03/16 05:12:07;;;;;;;;;3.50;3.00;;;;;9.14;49.59;100900.41;5017598;28;45351;-66
2023/03/16 05:14:34;;;;;;;;;6.50;6.50;;;;;9.11;49.64;100899.53;5017561;28;45414;-67
2023/03/16 05:17:02;;;;;;;;;5.50;3.00;;;;;9.12;49.63;100908.28;5017420;28;45543;-66
2023/03/16 05:19:28;;;;;;;;;5.00;5.00;;;;;9.11;49.66;100898.66;5017103;28;47309;-66
2023/03/16 05:21:55;;;;;;;;;3.00;3.00;;;;;9.09;49.81;100890.81;5017384;28;45325;-67
2023/03/16 05:24:22;;;;;;;;;4.25;3.25;;;;;9.09;50.00;100885.56;5017149;28;45317;-67
2023/03/16 05:26:47;;;;;;;;;4.50;4.25;;;;;9.08;49.78;100875.97;5017430;28;45454;-66
2023/03/16 05:29:12;;;;;;;;;2.25;2.25;;;;;9.07;49.56;100881.22;5017025;28;45923;-66
2023/03/16 05:31:38;;;;;;;;;3.50;3.50;;;;;9.04;49.58;100882.09;5017119;28;45243;-66
2023/03/16 05:34:03;;;;;;;;;5.25;3.50;;;;;9.03;49.48;100885.59;5017451;28;45224;-67
2023/03/16 05:36:28;;;;;;;;;3.50;3.00;;;;;9.00;49.66;100885.59;5017371;28;45209;-66
2023/03/16 05:38:54;;;;;;;;;3.50;3.00;;;;;9.00;49.90;100888.22;5016239;28;49160;-66
2023/03/16 05:41:20;;;;;;;;;6.75;3.25;;;;;8.99;49.52;100890.84;5017222;28;45284;-66
2023/03/16 05:43:46;;;;;;;;;3.25;3.25;;;;;8.97;49.69;100889.97;5015460;28;45453;-66
2023/03/16 05:46:12;;;;;;;;;3.75;3.75;;;;;8.94;49.66;100890.88;5016986;28;45454;-66
2023/03/16 05:48:38;;;;;;;;;3.00;3.00;;;;;8.93;49.56;100892.63;5016607;28;47147;-66
2023/03/16 05:51:04;;;;;;;;;2.75;2.75;;;;;8.92;50.01;100887.41;4997219;28;45393;-67
2023/03/16 05:53:30;;;;;;;;;4.50;3.50;;;;;8.90;49.63;100894.41;5015353;28;45336;-66
2023/03/16 05:55:56;;;;;;;;;3.25;2.00;;;;;8.86;49.88;100888.28;5016830;28;45464;-66
2023/03/16 05:58:21;;;;;;;;;2.00;2.00;;;;;8.84;49.69;100891.81;5016157;28;45320;-66
2023/03/16 06:00:46;;;;;;;;;6.00;3.50;;;;;8.84;49.52;100887.44;5005748;28;45402;-66
2023/03/16 06:03:12;;;;;;;;;4.50;3.50;;;;;8.84;49.58;100883.94;5001124;28;50317;-66
2023/03/16 06:05:37;;;;;;;;;5.00;4.00;;;;;8.83;49.83;100880.47;5017048;28;45401;-66
2023/03/16 06:08:03;;;;;;;;;4.00;4.00;;;;;8.82;49.85;100883.94;5031835;28;47069;-66
2023/03/16 06:10:28;;;;;;;;;4.00;4.00;;;;;8.82;49.82;100872.59;5016570;28;45219;-66
2023/03/16 06:12:53;;;;;;;;;4.00;3.75;;;;;8.82;49.58;100880.44;5016627;28;45287;-66
2023/03/16 06:15:19;;;;;;;;;4.00;4.00;;;;;8.82;49.80;100880.44;5016521;28;54892;-66
2023/03/16 06:17:44;;;;;;;;;6.00;3.75;;;;;8.81;49.61;100876.09;5016168;28;45830;-68
2023/03/16 06:20:12;;;;;;;;;3.00;3.00;;;;;8.80;49.58;100885.69;5015455;28;57860;-66
2023/03/16 06:22:40;;;;;;;;;3.75;3.00;;;;;8.78;49.71;100879.63;5016581;28;45420;-66
2023/03/16 06:25:07;;;;;;;;;5.00;3.75;;;;;8.78;49.69;100885.72;5016512;28;45385;-68
2023/03/16 06:27:32;;;;;;;;;4.75;3.00;;;;;8.80;49.66;100879.59;5014851;28;46799;-68
2023/03/16 06:29:58;;;;;;;;;5.75;5.75;;;;;8.77;49.69;100875.25;5016384;28;45377;-66
2023/03/16 06:32:23;;;;;;;;;2.50;2.25;;;;;8.79;49.90;100883.94;5016186;28;45168;-67
2023/03/16 06:34:48;;;;;;;;;4.00;4.00;;;;;8.81;49.64;100889.22;5016422;28;45154;-66
2023/03/16 06:37:14;;;;;;;;;5.00;3.00;;;;;8.80;49.54;100893.56;5016062;28;46209;-64
2023/03/16 06:39:39;;;;;;;;;6.25;5.00;;;;;8.77;49.75;100886.59;5016156;28;45218;-66
2023/03/16 06:42:04;;;;;;;;;4.25;4.00;;;;;8.78;49.89;100888.34;5016224;28;45693;-63
2023/03/16 06:44:30;;;;;;;;;5.00;3.50;;;;;8.81;49.79;100883.97;5016333;28;45224;-67
2023/03/16 06:46:56;;;;;;;;;4.25;3.25;;;;;8.80;49.76;100882.22;5015581;28;45335;-65
2023/03/16 06:49:21;;;;;;;;;4.00;4.00;;;;;8.81;49.70;100883.97;5010032;28;45433;-65
2023/03/16 06:51:46;;;;;;;;;3.25;3.25;;;;;8.81;49.70;100887.44;4999636;28;54409;-64
2023/03/16 06:54:12;;;;;;;;;5.00;4.75;;;;;8.82;49.74;100881.34;5014777;28;45341;-64
2023/03/16 06:56:37;;;;;;;;;3.25;3.25;;;;;8.73;49.48;100866.53;5018366;28;60601;-64
2023/03/16 06:59:02;;;;;;;;;4.00;3.00;;;;;8.75;49.75;100869.13;5017855;28;45330;-65
2023/03/16 07:01:28;;;;;;;;;2.25;2.25;;;;;8.84;49.87;100878.69;5004083;28;45315;-65
2023/03/16 07:03:54;;;;;;;;;2.00;2.00;;;;;8.85;49.88;100880.44;5019222;28;45534;-64
2023/03/16 07:06:19;;;;;;;;;3.25;3.25;;;;;8.88;49.85;100877.78;5018359;28;59878;-64
2023/03/16 07:08:44;;;;;;;;;4.00;3.00;;;;;8.89;49.71;100869.94;5019010;28;46459;-64
2023/03/16 07:11:10;;;;;;;;;6.00;4.50;;;;;8.90;49.72;100876.06;5018882;28;45301;-64
2023/03/16 07:13:36;;;;;;;;;5.00;5.00;;;;;8.92;49.62;100874.31;5019009;28;45297;-65
2023/03/16 07:16:03;;;;;;;;;3.00;3.00;;;;;8.93;49.87;100869.03;5018718;28;45928;-61
2023/03/16 07:18:30;;;;;;;;;3.50;3.50;;;;;8.94;49.81;100862.03;5017664;28;45426;-62
2023/03/16 07:20:57;;;;;;;;;3.75;3.75;;;;;8.96;50.13;100867.31;5018358;28;45281;-64
2023/03/16 07:23:23;;;;;;;;;3.50;3.50;;;;;8.96;49.94;100870.78;5019044;28;45234;-65
2023/03/16 07:25:50;;;;;;;;;3.50;3.50;;;;;8.98;49.91;100870.75;5018375;28;45387;-65
2023/03/16 07:28:16;;;;;;;;;5.25;3.75;;;;;9.00;50.02;100866.41;5018715;28;45309;-66
2023/03/16 07:30:41;;;;;;;;;3.25;3.25;;;;;9.01;49.95;100870.75;5018644;28;45302;-66
2023/03/16 07:33:07;;;;;;;;;3.25;3.25;;;;;9.02;49.81;100864.63;5018633;28;45381;-66
2023/03/16 07:35:32;;;;;;;;;9.25;5.00;;;;;9.02;49.91;100849.78;5018562;28;50131;-66
2023/03/16 07:37:57;;;;;;;;;4.00;4.00;;;;;9.06;49.97;100863.75;5018853;28;45291;-67
2023/03/16 07:40:23;;;;;;;;;5.00;3.75;;;;;9.09;49.71;100855.84;5018606;28;45225;-67
2023/03/16 07:42:48;;;;;;;;;4.00;2.75;;;;;9.10;49.85;100852.34;5018737;28;45149;-67
2023/03/16 07:45:14;;;;;;;;;2.50;2.00;;;;;9.13;49.98;100841.81;5018639;28;45985;-67
2023/03/16 07:47:40;;;;;;;;;3.75;3.00;;;;;9.15;49.73;100844.47;5018225;28;45265;-66
2023/03/16 07:50:07;;;;;;;;;4.25;2.50;;;;;9.13;49.88;100831.34;5006602;28;45241;-67
2023/03/16 07:52:33;;;;;;;;;4.50;3.00;;;;;9.19;49.85;100838.31;5008981;28;45359;-67
2023/03/16 07:54:58;;;;;;;;;5.00;4.00;;;;;9.18;49.96;100832.19;5018258;28;45378;-67
2023/03/16 07:57:23;;;;;;;;;4.00;2.50;;;;;9.22;49.83;100841.78;5017221;28;45332;-67
2023/03/16 07:59:49;;;;;;;;;5.00;3.00;;;;;9.24;49.81;100847.91;5015350;28;45256;-67
2023/03/16 08:02:17;;;;;;;;;3.50;3.25;;;;;9.27;49.84;100844.38;4998467;28;45522;-67
2023/03/16 08:04:43;;;;;;;;;3.00;2.50;;;;;9.30;50.17;100851.34;5002303;28;46454;-67
2023/03/16 08:07:10;;;;;;;;;3.50;3.00;;;;;9.33;49.89;100846.94;5018019;28;45245;-66
2023/03/16 08:09:36;;;;;;;;;4.00;3.00;;;;;9.36;49.84;100846.06;5033598;28;45292;-67
2023/03/16 08:12:03;;;;;;;;;3.50;3.00;;;;;9.38;50.25;100845.16;5018365;28;45281;-67
2023/03/16 08:14:29;;;;;;;;;3.25;3.25;;;;;9.42;50.13;100843.38;5018303;28;45457;-67
2023/03/16 08:16:54;;;;;;;;;3.50;2.75;;;;;9.43;50.18;100830.25;5018034;28;45317;-67
2023/03/16 08:19:20;;;;;;;;;4.75;3.00;;;;;9.45;50.03;100835.50;5018167;28;45298;-67
2023/03/16 08:21:45;;;;;;;;;3.25;3.00;;;;;9.51;49.93;100845.94;5017925;28;52840;-67
2023/03/16 08:24:10;;;;;;;;;2.50;2.50;;;;;9.54;50.00;100852.91;5017940;28;45410;-67
2023/03/16 08:26:36;;;;;;;;;3.00;3.00;;;;;9.55;50.10;100844.16;5018195;28;45336;-67
2023/03/16 08:29:02;;;;;;;;;3.25;3.25;;;;;9.61;49.88;100851.97;5018285;28;45293;-67
2023/03/16 08:31:29;;;;;;;;;0.25;0.25;;;;;9.66;50.17;100854.53;5018168;28;46561;-66
2023/03/16 08:33:55;;;;;;;;;4.25;3.25;;;;;9.67;50.22;100845.78;5017794;28;47010;-67
2023/03/16 08:36:22;;;;;;;;;3.75;3.75;;;;;9.72;49.97;100844.88;5018123;28;45206;-67
2023/03/16 08:38:48;;;;;;;;;4.00;4.00;;;;;9.77;50.20;100842.19;5017984;28;45369;-67
2023/03/16 08:41:15;;;;;;;;;3.25;3.00;;;;;9.82;50.06;100839.53;5017884;28;45322;-67
2023/03/16 08:43:41;;;;;;;;;3.25;3.25;;;;;9.86;50.04;100842.13;5017977;28;46249;-67
2023/03/16 08:46:06;;;;;;;;;4.00;4.00;;;;;9.90;50.18;100840.34;5017593;28;45303;-67
2023/03/16 08:48:35;;;;;;;;;5.00;4.00;;;;;9.96;50.17;100847.28;5017768;28;45310;-66
2023/03/16 08:51:02;;;;;;;;;4.25;4.25;;;;;10.01;50.26;100845.47;4998961;28;45393;-67
2023/03/16 08:53:28;;;;;;;;;5.25;5.25;;;;;10.04;50.26;100846.31;5015627;28;45176;-67
2023/03/16 08:56:03;;;;;;;;;5.00;3.75;;;;;10.08;50.20;100848.03;5017627;28;45269;-67
2023/03/16 08:58:29;;;;;;;;;7.00;4.25;;;;;10.15;50.54;100837.44;5017721;28;45432;-67
2023/03/16 09:00:54;;;;;;;;;4.00;4.00;;;;;10.20;50.10;100840.91;5005180;28;45434;-67
2023/03/16 09:03:20;;;;;;;;;8.75;6.00;;;;;10.23;50.36;100833.84;5003561;28;45281;-67
2023/03/16 09:05:45;;;;;;;;;5.50;4.50;;;;;10.30;50.26;100831.16;5017793;28;45362;-67
2023/03/16 09:08:11;;;;;;;;;4.25;4.00;;;;;10.36;50.09;100836.38;5017630;28;45334;-67
2023/03/16 09:10:37;;;;;;;;;4.00;3.75;;;;;10.43;50.19;100834.53;5017450;28;45429;-67
2023/03/16 09:13:03;;;;;;;;;6.00;5.00;;;;;10.49;50.35;100839.72;5017168;28;50172;-67
2023/03/16 09:15:29;;;;;;;;;3.75;3.75;;;;;10.56;50.18;100838.75;5017540;28;45173;-67
2023/03/16 09:17:56;;;;;;;;;4.25;4.25;;;;;10.63;50.25;100840.44;5016520;28;45238;-67
2023/03/16 09:20:21;;;;;;;;;5.00;5.00;;;;;10.71;50.36;100835.94;5017409;28;45250;-68
2023/03/16 09:22:47;;;;;;;;;5.00;2.50;;;;;10.78;50.37;100828.84;5017358;28;46015;-66
2023/03/16 09:25:13;;;;;;;;;4.00;4.00;;;;;10.87;50.36;100825.22;5017465;28;45295;-67
2023/03/16 09:27:39;;;;;;;;;4.50;4.50;;;;;10.96;50.33;100817.19;5017530;28;45350;-67
2023/03/16 09:30:06;;;;;;;;;5.25;4.25;;;;;11.09;50.41;100825.75;5017259;28;45359;-66
2023/03/16 09:32:32;;;;;;;;;4.25;4.25;;;;;11.21;50.45;100816.84;5016893;28;45360;-67
2023/03/16 09:34:58;;;;;;;;;5.00;3.00;;;;;11.32;50.60;100814.00;5017248;28;45253;-66
2023/03/16 09:37:25;;;;;;;;;6.00;4.00;;;;;11.45;50.49;100810.31;5017346;28;45499;-67
2023/03/16 09:39:51;;;;;;;;;4.50;3.50;;;;;11.57;50.70;100811.84;5016317;28;45181;-67
2023/03/16 09:42:46;;;;;;;;;3.25;1.50;;;;;11.70;50.50;100802.00;5016986;28;46079;-67
2023/03/16 09:45:25;;;;;;;;;2.75;2.75;;;;;11.85;50.66;100811.38;5017126;28;45225;-67
2023/03/16 09:47:55;;;;;;;;;2.00;2.00;;;;;11.96;50.52;100809.44;5015732;28;45492;-67
2023/03/16 09:50:29;;;;;;;;;2.00;2.00;;;;;12.08;50.46;100802.22;4999654;28;45462;-67
2023/03/16 09:53:03;;;;;;;;;3.25;3.00;;;;;12.20;50.60;100801.97;5003820;28;46582;-66
2023/03/16 09:55:37;;;;;;;;;3.00;2.00;;;;;12.31;50.32;100797.34;5016915;28;45306;-67
2023/03/16 09:58:16;;;;;;;;;4.00;4.00;;;;;12.42;50.72;100796.25;5017066;28;45297;-67
2023/03/16 10:01:08;;;;;;;;;3.50;2.50;;;;;12.54;50.37;100795.13;5005360;28;45280;-67
2023/03/16 10:03:50;;;;;;;;;2.25;2.25;;;;;12.63;50.37;100801.06;4991979;28;45362;-67
2023/03/16 10:06:15;;;;;;;;;3.00;3.00;;;;;12.71;50.33;100803.53;5015367;28;45480;-66
2023/03/16 10:08:53;;;;;;;;;4.00;1.75;;;;;12.78;50.41;100786.69;5016774;28;45354;-66
2023/03/16 10:11:24;;;;;;;;;3.00;1.50;;;;;12.85;49.93;100782.13;5016682;28;45235;-66
2023/03/16 10:14:08;;;;;;;;;3.50;3.25;;;;;12.93;50.39;100780.19;5016630;28;47022;-66
2023/03/16 10:16:36;;;;;;;;;2.50;2.50;;;;;13.01;50.14;100777.34;5016277;28;45466;-66
2023/03/16 10:19:12;;;;;;;;;2.25;2.00;;;;;13.09;50.24;100787.72;5016449;28;45260;-66
2023/03/16 10:21:39;;;;;;;;;3.00;2.00;;;;;13.15;50.06;100777.88;5015391;28;45273;-66
2023/03/16 10:24:58;;;;;;;;;4.25;4.00;;;;;13.24;50.33;100782.06;5016095;28;45204;-66
2023/03/16 10:27:30;;;;;;;;;2.00;2.00;;;;;13.31;50.29;100765.19;5017988;28;45281;-66
2023/03/16 10:29:55;;;;;;;;;4.75;4.00;;;;;13.40;50.08;100765.91;5018406;28;45241;-66
2023/03/16 10:32:23;;;;;;;;;4.00;2.25;;;;;13.48;50.15;100769.19;5017838;28;45758;-66
2023/03/16 10:34:57;;;;;;;;;3.25;3.00;;;;;13.56;50.31;100769.00;5019729;28;45332;-66
2023/03/16 10:37:24;;;;;;;;;2.00;2.00;;;;;13.64;50.29;100767.03;5017426;28;45473;-66
2023/03/16 10:39:50;;;;;;;;;4.00;4.00;;;;;13.70;50.22;100758.94;5019421;28;45553;-66
2023/03/16 10:42:18;;;;;;;;;3.75;3.00;;;;;13.82;50.32;100761.25;5019229;28;45560;-66
2023/03/16 10:44:45;;;;;;;;;3.25;3.00;;;;;13.92;49.85;100759.25;5019473;28;46195;-66
2023/03/16 10:47:23;;;;;;;;;5.00;5.00;;;;;14.02;50.13;100761.59;5018660;28;45456;-66
2023/03/16 10:49:50;;;;;;;;;1.50;1.50;;;;;14.13;49.97;100763.03;5009654;28;45386;-66
2023/03/16 10:52:23;;;;;;;;;5.00;4.25;;;;;14.24;50.14;100754.78;5007326;28;45474;-66
2023/03/16 10:54:53;;;;;;;;;5.25;3.50;;;;;14.36;50.29;100752.69;5018946;28;45977;-66
2023/03/16 10:57:19;;;;;;;;;4.25;2.00;;;;;14.50;50.40;100749.63;5019241;28;45236;-66
2023/03/16 10:59:52;;;;;;;;;7.00;4.25;;;;;14.63;50.19;100743.06;5016427;28;45254;-66
2023/03/16 11:02:22;;;;;;;;;3.25;3.25;;;;;14.75;50.60;100750.66;4999382;28;45289;-66
2023/03/16 11:04:48;;;;;;;;;5.75;3.50;;;;;14.91;50.41;100736.94;5017182;28;46234;-66
2023/03/16 11:07:17;;;;;;;;;3.50;3.25;;;;;15.04;50.15;100732.09;5019222;28;45496;-66
2023/03/16 11:09:43;;;;;;;;;3.00;2.00;;;;;15.19;50.18;100721.00;5018919;28;45314;-66
2023/03/16 11:12:14;;;;;;;;;4.00;3.00;;;;;15.30;50.25;100718.00;5019163;28;45225;-66
2023/03/16 11:14:43;;;;;;;;;3.00;3.00;;;;;15.40;50.36;100700.00;5017461;28;45331;-67
2023/03/16 11:17:17;;;;;;;;;6.25;5.00;;;;;15.58;50.36;100717.03;5018744;28;45456;-66
2023/03/16 11:19:53;;;;;;;;;1.25;1.00;;;;;15.72;50.40;100713.88;5018890;28;45317;-66
2023/03/16 11:22:24;;;;;;;;;4.00;3.25;;;;;15.87;49.85;100712.50;5018765;28;45383;-67
2023/03/16 11:25:01;;;;;;;;;1.00;1.00;;;;;16.05;50.15;100713.59;5018555;28;46252;-66
2023/03/16 11:27:45;;;;;;;;;0.50;0.50;;;;;16.24;50.32;100709.34;5017455;28;45320;-66
2023/03/16 11:30:37;;;;;;;;;1.50;1.50;;;;;16.45;50.39;100701.47;5018985;28;45257;-66
2023/03/16 11:33:08;;;;;;;;;1.00;1.00;;;;;16.73;50.51;100685.31;5017402;28;45314;-66